createdAt,value
2023-03-29T00:00:13.451Z,475.00
2023-03-29T00:01:34.779Z,477.00
2023-03-29T00:02:14.446Z,475.00
2023-03-29T00:03:13.550Z,475.00
2023-03-29T00:04:13.594Z,475.00
2023-03-29T00:05:13.408Z,477.00
2023-03-29T00:06:13.416Z,475.00
2023-03-29T00:07:13.405Z,475.00
2023-03-29T00:08:13.386Z,477.00
2023-03-29T00:09:13.394Z,478.00
2023-03-29T00:10:13.407Z,477.00
2023-03-29T00:11:13.390Z,479.00
2023-03-29T00:12:13.370Z,478.00
2023-03-29T00:13:13.385Z,478.00
2023-03-29T00:14:13.362Z,481.00
2023-03-29T00:15:13.354Z,480.00
2023-03-29T00:16:13.340Z,479.00
2023-03-29T00:17:13.472Z,478.00
2023-03-29T00:18:13.348Z,476.00
2023-03-29T00:19:13.342Z,475.00
2023-03-29T00:20:13.338Z,473.00
2023-03-29T00:21:13.328Z,473.00
2023-03-29T00:22:13.316Z,472.00
2023-03-29T00:23:13.368Z,472.00
2023-03-29T00:24:13.479Z,472.00
2023-03-29T00:25:13.487Z,471.00
2023-03-29T00:26:13.500Z,472.00
2023-03-29T00:27:13.508Z,474.00
2023-03-29T00:28:13.523Z,475.00
2023-03-29T00:29:13.506Z,474.00
2023-03-29T00:30:13.631Z,475.00
2023-03-29T00:31:13.760Z,475.00
2023-03-29T00:32:13.715Z,473.00
2023-03-29T00:33:13.669Z,474.00
2023-03-29T00:34:13.684Z,475.00
2023-03-29T00:35:13.704Z,474.00
2023-03-29T00:36:13.707Z,476.00
2023-03-29T00:37:13.713Z,476.00
2023-03-29T00:38:13.742Z,479.00
2023-03-29T00:39:13.723Z,480.00
2023-03-29T00:40:13.846Z,479.00
2023-03-29T00:41:13.857Z,479.00
2023-03-29T00:42:13.867Z,480.00
2023-03-29T00:43:13.860Z,482.00
2023-03-29T00:44:13.877Z,482.00
2023-03-29T00:45:13.893Z,482.00
2023-03-29T00:46:13.944Z,479.00
2023-03-29T00:47:13.931Z,479.00
2023-03-29T00:48:13.973Z,478.00
2023-03-29T00:49:13.970Z,476.00
2023-03-29T00:50:13.945Z,475.00
2023-03-29T00:51:13.977Z,477.00
2023-03-29T00:52:14.014Z,476.00
2023-03-29T00:53:14.013Z,474.00
2023-03-29T00:54:14.024Z,474.00
2023-03-29T00:55:14.020Z,473.00
2023-03-29T00:56:14.098Z,473.00
2023-03-29T00:57:14.116Z,474.00
2023-03-29T00:58:14.090Z,472.00
2023-03-29T00:59:14.101Z,473.00
2023-03-29T01:00:14.200Z,475.00
2023-03-29T01:01:14.297Z,476.00
2023-03-29T01:02:14.402Z,473.00
2023-03-29T01:03:14.467Z,472.00
2023-03-29T01:04:14.275Z,472.00
2023-03-29T01:05:14.317Z,472.00
2023-03-29T01:06:14.337Z,473.00
2023-03-29T01:07:14.425Z,473.00
2023-03-29T01:08:14.366Z,474.00
2023-03-29T01:09:14.371Z,476.00
2023-03-29T01:10:14.471Z,479.00
2023-03-29T01:11:14.466Z,481.00
2023-03-29T01:12:14.484Z,483.00
2023-03-29T01:13:14.472Z,484.00
2023-03-29T01:14:14.495Z,482.00
2023-03-29T01:15:14.511Z,481.00
2023-03-29T01:16:14.620Z,481.00
2023-03-29T01:17:14.624Z,479.00
2023-03-29T01:18:14.635Z,481.00
2023-03-29T01:19:14.628Z,481.00
2023-03-29T01:20:14.655Z,481.00
2023-03-29T01:21:14.680Z,481.00
2023-03-29T01:22:14.673Z,480.00
2023-03-29T01:23:14.694Z,480.00
2023-03-29T01:24:14.701Z,478.00
2023-03-29T01:25:14.707Z,479.00
2023-03-29T01:26:14.734Z,481.00
2023-03-29T01:27:14.792Z,482.00
2023-03-29T01:28:14.789Z,483.00
2023-03-29T01:29:14.795Z,484.00
2023-03-29T01:30:14.891Z,483.00
2023-03-29T01:31:14.848Z,482.00
2023-03-29T01:32:14.854Z,483.00
2023-03-29T01:33:14.866Z,484.00
2023-03-29T01:34:14.863Z,483.00
2023-03-29T01:35:14.901Z,482.00
2023-03-29T01:36:14.934Z,482.00
2023-03-29T01:37:14.924Z,479.00
2023-03-29T01:38:14.958Z,481.00
2023-03-29T01:39:14.967Z,484.00
2023-03-29T01:40:14.975Z,486.00
2023-03-29T01:41:14.985Z,487.00
2023-03-29T01:42:14.990Z,489.00
2023-03-29T01:43:15.046Z,488.00
2023-03-29T01:44:14.996Z,487.00
2023-03-29T01:45:15.003Z,486.00
2023-03-29T01:46:15.126Z,484.00
2023-03-29T01:47:15.137Z,482.00
2023-03-29T01:48:15.170Z,482.00
2023-03-29T01:49:15.156Z,481.00
2023-03-29T01:50:15.135Z,480.00
2023-03-29T01:51:15.149Z,479.00
2023-03-29T01:52:15.273Z,480.00
2023-03-29T01:53:15.275Z,478.00
2023-03-29T01:54:15.282Z,476.00
2023-03-29T01:55:15.273Z,474.00
2023-03-29T01:56:15.307Z,476.00
2023-03-29T01:57:15.407Z,473.00
2023-03-29T01:58:15.334Z,475.00
2023-03-29T01:59:15.335Z,475.00
2023-03-29T02:00:15.378Z,478.00
2023-03-29T02:01:15.433Z,476.00
2023-03-29T02:02:15.470Z,475.00
2023-03-29T02:03:15.516Z,477.00
2023-03-29T02:04:15.408Z,478.00
2023-03-29T02:05:15.413Z,476.00
2023-03-29T02:06:15.441Z,475.00
2023-03-29T02:07:15.439Z,476.00
2023-03-29T02:08:15.489Z,474.00
2023-03-29T02:09:15.486Z,474.00
2023-03-29T02:10:15.462Z,476.00
2023-03-29T02:11:15.577Z,476.00
2023-03-29T02:12:15.690Z,478.00
2023-03-29T02:13:15.675Z,478.00
2023-03-29T02:14:15.729Z,477.00
2023-03-29T02:15:15.698Z,476.00
2023-03-29T02:16:15.769Z,474.00
2023-03-29T02:17:15.743Z,471.00
2023-03-29T02:18:15.776Z,471.00
2023-03-29T02:19:15.768Z,471.00
2023-03-29T02:20:15.797Z,472.00
2023-03-29T02:21:15.807Z,471.00
2023-03-29T02:22:15.808Z,473.00
2023-03-29T02:23:15.857Z,474.00
2023-03-29T02:24:15.862Z,476.00
2023-03-29T02:25:15.852Z,478.00
2023-03-29T02:26:15.882Z,478.00
2023-03-29T02:27:15.912Z,478.00
2023-03-29T02:28:16.002Z,476.00
2023-03-29T02:29:16.014Z,475.00
2023-03-29T02:30:16.052Z,474.00
2023-03-29T02:31:16.081Z,472.00
2023-03-29T02:32:16.080Z,472.00
2023-03-29T02:33:16.072Z,472.00
2023-03-29T02:34:16.148Z,474.00
2023-03-29T02:35:16.168Z,476.00
2023-03-29T02:36:16.200Z,476.00
2023-03-29T02:37:16.193Z,476.00
2023-03-29T02:38:16.207Z,472.00
2023-03-29T02:39:16.269Z,473.00
2023-03-29T02:40:16.349Z,473.00
2023-03-29T02:41:16.304Z,476.00
2023-03-29T02:42:16.310Z,479.00
2023-03-29T02:43:16.321Z,480.00
2023-03-29T02:44:16.342Z,480.00
2023-03-29T02:45:16.374Z,479.00
2023-03-29T02:46:16.403Z,478.00
2023-03-29T02:47:16.397Z,478.00
2023-03-29T02:48:16.414Z,475.00
2023-03-29T02:49:16.451Z,474.00
2023-03-29T02:50:16.489Z,473.00
2023-03-29T02:51:18.616Z,471.00
2023-03-29T02:52:16.472Z,472.00
2023-03-29T02:53:16.462Z,474.00
2023-03-29T02:54:16.459Z,475.00
2023-03-29T02:55:16.439Z,474.00
2023-03-29T02:56:16.445Z,472.00
2023-03-29T02:57:16.521Z,471.00
2023-03-29T02:58:16.443Z,472.00
2023-03-29T02:59:16.437Z,472.00
2023-03-29T03:00:16.411Z,472.00
2023-03-29T03:01:16.405Z,475.00
2023-03-29T03:02:16.479Z,475.00
2023-03-29T03:03:16.530Z,475.00
2023-03-29T03:04:16.436Z,474.00
2023-03-29T03:05:16.389Z,473.00
2023-03-29T03:06:16.386Z,471.00
2023-03-29T03:07:16.375Z,469.00
2023-03-29T03:08:16.400Z,469.00
2023-03-29T03:09:16.362Z,467.00
2023-03-29T03:10:16.357Z,468.00
2023-03-29T03:11:16.339Z,468.00
2023-03-29T03:12:16.354Z,468.00
2023-03-29T03:13:16.333Z,470.00
2023-03-29T03:14:16.362Z,470.00
2023-03-29T03:15:16.327Z,469.00
2023-03-29T03:16:16.318Z,469.00
2023-03-29T03:17:16.305Z,470.00
2023-03-29T03:18:16.327Z,471.00
2023-03-29T03:19:16.333Z,471.00
2023-03-29T03:20:16.272Z,472.00
2023-03-29T03:21:16.281Z,473.00
2023-03-29T03:22:16.273Z,474.00
2023-03-29T03:23:16.283Z,476.00
2023-03-29T03:24:16.253Z,476.00
2023-03-29T03:25:16.242Z,475.00
2023-03-29T03:26:16.265Z,473.00
2023-03-29T03:27:16.243Z,473.00
2023-03-29T03:28:16.228Z,475.00
2023-03-29T03:29:16.213Z,475.00
2023-03-29T03:30:16.210Z,476.00
2023-03-29T03:31:16.233Z,478.00
2023-03-29T03:32:16.196Z,477.00
2023-03-29T03:33:16.239Z,479.00
2023-03-29T03:34:16.194Z,479.00
2023-03-29T03:35:16.190Z,477.00
2023-03-29T03:36:16.197Z,476.00
2023-03-29T03:37:16.208Z,475.00
2023-03-29T03:38:16.166Z,474.00
2023-03-29T03:39:16.181Z,471.00
2023-03-29T03:40:16.136Z,470.00
2023-03-29T03:41:16.128Z,471.00
2023-03-29T03:42:16.131Z,470.00
2023-03-29T03:43:16.143Z,472.00
2023-03-29T03:44:16.135Z,474.00
2023-03-29T03:45:16.122Z,474.00
2023-03-29T03:46:16.162Z,473.00
2023-03-29T03:47:16.102Z,474.00
2023-03-29T03:48:16.075Z,474.00
2023-03-29T03:49:16.096Z,475.00
2023-03-29T03:50:16.109Z,475.00
2023-03-29T03:51:16.067Z,474.00
2023-03-29T03:52:16.058Z,474.00
2023-03-29T03:53:16.064Z,477.00
2023-03-29T03:54:16.042Z,476.00
2023-03-29T03:55:16.053Z,475.00
2023-03-29T03:56:16.038Z,476.00
2023-03-29T03:57:16.096Z,481.00
2023-03-29T03:58:16.016Z,480.00
2023-03-29T03:59:16.025Z,480.00
2023-03-29T04:00:16.024Z,481.00
2023-03-29T04:01:16.001Z,482.00
2023-03-29T04:02:16.013Z,483.00
2023-03-29T04:03:16.082Z,483.00
2023-03-29T04:04:16.008Z,483.00
2023-03-29T04:05:15.986Z,482.00
2023-03-29T04:06:15.976Z,481.00
2023-03-29T04:07:15.974Z,480.00
2023-03-29T04:08:15.965Z,480.00
2023-03-29T04:09:15.948Z,476.00
2023-03-29T04:10:15.990Z,477.00
2023-03-29T04:11:15.956Z,479.00
2023-03-29T04:12:15.924Z,478.00
2023-03-29T04:13:15.918Z,477.00
2023-03-29T04:14:15.927Z,476.00
2023-03-29T04:15:15.916Z,477.00
2023-03-29T04:16:15.947Z,475.00
2023-03-29T04:17:15.895Z,474.00
2023-03-29T04:18:16.141Z,476.00
2023-03-29T04:19:15.891Z,476.00
2023-03-29T04:20:15.876Z,478.00
2023-03-29T04:21:15.880Z,480.00
2023-03-29T04:22:15.875Z,479.00
2023-03-29T04:23:15.863Z,479.00
2023-03-29T04:24:15.855Z,477.00
2023-03-29T04:25:15.850Z,475.00
2023-03-29T04:26:15.881Z,475.00
2023-03-29T04:27:15.835Z,475.00
2023-03-29T04:28:15.921Z,476.00
2023-03-29T04:29:15.934Z,478.00
2023-03-29T04:30:15.960Z,477.00
2023-03-29T04:31:15.937Z,476.00
2023-03-29T04:32:15.942Z,476.00
2023-03-29T04:33:15.959Z,476.00
2023-03-29T04:34:15.996Z,477.00
2023-03-29T04:35:16.006Z,479.00
2023-03-29T04:36:16.134Z,479.00
2023-03-29T04:37:16.020Z,479.00
2023-03-29T04:38:16.031Z,478.00
2023-03-29T04:39:16.043Z,479.00
2023-03-29T04:40:16.047Z,478.00
2023-03-29T04:41:16.064Z,475.00
2023-03-29T04:42:16.074Z,475.00
2023-03-29T04:43:16.105Z,476.00
2023-03-29T04:44:16.187Z,474.00
2023-03-29T04:45:16.198Z,474.00
2023-03-29T04:46:16.220Z,474.00
2023-03-29T04:47:16.215Z,474.00
2023-03-29T04:48:16.237Z,475.00
2023-03-29T04:49:16.329Z,474.00
2023-03-29T04:50:16.349Z,475.00
2023-03-29T04:51:16.354Z,473.00
2023-03-29T04:52:16.361Z,473.00
2023-03-29T04:53:16.414Z,474.00
2023-03-29T04:54:16.397Z,477.00
2023-03-29T04:55:16.489Z,476.00
2023-03-29T04:56:16.498Z,476.00
2023-03-29T04:57:16.539Z,476.00
2023-03-29T04:58:16.522Z,476.00
2023-03-29T04:59:16.543Z,477.00
2023-03-29T05:00:16.544Z,478.00
2023-03-29T05:01:16.739Z,477.00
2023-03-29T05:02:16.667Z,480.00
2023-03-29T05:03:50.644Z,494.00
2023-03-29T05:04:50.532Z,489.00
2023-03-29T05:05:50.501Z,489.00
2023-03-29T05:06:50.485Z,488.00
2023-03-29T05:07:50.483Z,490.00
2023-03-29T05:08:50.511Z,490.00
2023-03-29T05:09:50.468Z,490.00
2023-03-29T05:10:50.446Z,489.00
2023-03-29T05:11:50.457Z,490.00
2023-03-29T05:12:50.439Z,492.00
2023-03-29T05:13:50.467Z,490.00
2023-03-29T05:14:50.468Z,492.00
2023-03-29T05:15:50.447Z,488.00
2023-03-29T05:16:50.422Z,487.00
2023-03-29T05:17:50.451Z,485.00
2023-03-29T05:18:50.427Z,487.00
2023-03-29T05:19:50.445Z,488.00
2023-03-29T05:20:50.452Z,490.00
2023-03-29T05:21:50.489Z,489.00
2023-03-29T05:22:50.374Z,491.00
2023-03-29T05:23:50.388Z,489.00
2023-03-29T05:24:50.438Z,487.00
2023-03-29T05:25:50.392Z,487.00
2023-03-29T05:26:50.350Z,489.00
2023-03-29T05:27:50.362Z,488.00
2023-03-29T05:28:50.379Z,488.00
2023-03-29T05:29:50.361Z,489.00
2023-03-29T05:30:50.350Z,495.00
2023-03-29T05:31:50.408Z,511.00
2023-03-29T05:32:50.363Z,526.00
2023-03-29T05:33:50.327Z,531.00
2023-03-29T05:34:50.322Z,536.00
2023-03-29T05:35:50.323Z,563.00
2023-03-29T05:36:50.318Z,587.00
2023-03-29T05:37:50.341Z,588.00
2023-03-29T05:38:50.332Z,585.00
2023-03-29T05:39:50.255Z,588.00
2023-03-29T05:40:50.253Z,609.00
2023-03-29T05:41:50.257Z,650.00
2023-03-29T05:42:50.281Z,672.00
2023-03-29T05:43:50.245Z,677.00
2023-03-29T05:44:51.567Z,685.00
2023-03-29T05:45:50.437Z,698.00
2023-03-29T05:46:50.452Z,716.00
2023-03-29T05:47:50.516Z,756.00
2023-03-29T05:48:50.537Z,775.00
2023-03-29T05:49:50.594Z,786.00
2023-03-29T05:50:50.685Z,782.00
2023-03-29T05:51:50.696Z,693.00
2023-03-29T05:52:50.771Z,666.00
2023-03-29T05:53:50.813Z,653.00
2023-03-29T05:54:50.879Z,645.00
2023-03-29T05:55:51.024Z,637.00
2023-03-29T05:56:50.994Z,627.00
2023-03-29T05:57:51.008Z,623.00
2023-03-29T05:58:52.946Z,614.00
2023-03-29T05:59:51.056Z,613.00
2023-03-29T06:00:51.051Z,610.00
2023-03-29T06:01:51.022Z,614.00
2023-03-29T06:02:51.144Z,629.00
2023-03-29T06:03:51.185Z,677.00
2023-03-29T06:04:51.067Z,664.00
2023-03-29T06:05:51.014Z,662.00
2023-03-29T06:06:51.001Z,668.00
2023-03-29T06:07:51.048Z,678.00
2023-03-29T06:08:51.005Z,696.00
2023-03-29T06:09:50.974Z,759.00
2023-03-29T06:10:50.966Z,776.00
2023-03-29T06:11:50.974Z,788.00
2023-03-29T06:12:51.001Z,798.00
2023-03-29T06:13:50.942Z,809.00
2023-03-29T06:14:50.944Z,818.00
2023-03-29T06:15:50.954Z,827.00
2023-03-29T06:16:50.967Z,834.00
2023-03-29T06:17:50.988Z,841.00
2023-03-29T06:18:50.905Z,848.00
2023-03-29T06:19:50.886Z,858.00
2023-03-29T06:20:50.907Z,864.00
2023-03-29T06:21:50.892Z,871.00
2023-03-29T06:22:50.867Z,879.00
2023-03-29T06:23:50.861Z,886.00
2023-03-29T06:24:50.860Z,894.00
2023-03-29T06:25:51.024Z,897.00
2023-03-29T06:26:50.857Z,899.00
2023-03-29T06:27:50.855Z,906.00
2023-03-29T06:28:52.273Z,912.00
2023-03-29T06:29:50.844Z,916.00
2023-03-29T06:30:50.861Z,919.00
2023-03-29T06:31:50.876Z,921.00
2023-03-29T06:32:50.852Z,929.00
2023-03-29T06:33:50.813Z,946.00
2023-03-29T06:34:50.865Z,952.00
2023-03-29T06:35:50.851Z,954.00
2023-03-29T06:36:50.818Z,951.00
2023-03-29T06:37:50.764Z,949.00
2023-03-29T06:38:50.771Z,955.00
2023-03-29T06:39:52.832Z,964.00
2023-03-29T06:40:50.892Z,972.00
2023-03-29T06:41:50.948Z,988.00
2023-03-29T06:42:50.953Z,998.00
2023-03-29T06:43:50.984Z,1024.00
2023-03-29T06:44:50.994Z,1032.00
2023-03-29T06:45:51.023Z,1039.00
2023-03-29T06:46:52.135Z,1046.00
2023-03-29T06:47:51.574Z,1055.00
2023-03-29T06:48:51.091Z,1072.00
2023-03-29T06:49:51.108Z,1091.00
2023-03-29T06:50:51.137Z,1095.00
2023-03-29T06:51:51.175Z,1103.00
2023-03-29T06:52:51.563Z,1095.00
2023-03-29T06:53:51.205Z,1085.00
2023-03-29T06:54:51.581Z,1078.00
2023-03-29T06:55:51.204Z,1084.00
2023-03-29T06:56:51.273Z,1099.00
2023-03-29T06:57:51.558Z,1107.00
2023-03-29T06:58:51.252Z,1114.00
2023-03-29T06:59:51.297Z,1121.00
2023-03-29T07:00:51.280Z,1133.00
2023-03-29T07:01:51.342Z,1139.00
2023-03-29T07:02:51.569Z,1141.00
2023-03-29T07:03:51.364Z,1137.00
2023-03-29T07:04:51.431Z,1131.00
2023-03-29T07:05:51.366Z,1126.00
2023-03-29T07:06:51.415Z,1120.00
2023-03-29T07:07:51.588Z,1112.00
2023-03-29T07:08:51.480Z,1104.00
2023-03-29T07:09:51.458Z,1097.00
2023-03-29T07:10:51.481Z,1092.00
2023-03-29T07:11:51.528Z,1082.00
2023-03-29T07:12:51.525Z,1075.00
2023-03-29T07:13:51.534Z,1072.00
2023-03-29T07:14:51.609Z,1058.00
2023-03-29T07:15:51.627Z,1052.00
2023-03-29T07:16:51.642Z,1052.00
2023-03-29T07:17:51.649Z,1054.00
2023-03-29T07:18:51.627Z,1050.00
2023-03-29T07:19:51.659Z,1051.00
2023-03-29T07:20:51.674Z,1047.00
2023-03-29T07:21:52.070Z,1051.00
2023-03-29T07:22:51.712Z,1056.00
2023-03-29T07:23:51.708Z,1061.00
2023-03-29T07:24:51.702Z,1062.00
2023-03-29T07:25:51.729Z,1049.00
2023-03-29T07:27:03.222Z,1034.00
2023-03-29T07:27:53.065Z,1029.00
2023-03-29T07:28:51.737Z,1020.00
2023-03-29T07:29:51.741Z,983.00
2023-03-29T07:30:51.724Z,1094.00
2023-03-29T07:31:51.708Z,1066.00
2023-03-29T07:32:52.085Z,1040.00
2023-03-29T07:33:51.743Z,1032.00
2023-03-29T07:34:51.695Z,1026.00
2023-03-29T07:35:51.727Z,1020.00
2023-03-29T07:36:51.706Z,1011.00
2023-03-29T07:37:52.072Z,1008.00
2023-03-29T07:38:52.932Z,1010.00
2023-03-29T07:39:51.696Z,1005.00
2023-03-29T07:40:51.651Z,1006.00
2023-03-29T07:41:51.668Z,1002.00
2023-03-29T07:42:51.671Z,996.00
2023-03-29T07:43:51.660Z,991.00
2023-03-29T07:44:52.085Z,983.00
2023-03-29T07:45:51.686Z,972.00
2023-03-29T07:46:51.621Z,964.00
2023-03-29T07:47:51.689Z,948.00
2023-03-29T07:48:51.621Z,918.00
2023-03-29T07:49:52.072Z,887.00
2023-03-29T07:50:51.601Z,862.00
2023-03-29T07:51:51.586Z,852.00
2023-03-29T07:52:52.095Z,847.00
2023-03-29T07:53:51.568Z,758.00
2023-03-29T07:54:52.061Z,751.00
2023-03-29T07:55:51.550Z,751.00
2023-03-29T07:56:51.574Z,752.00
2023-03-29T07:57:51.574Z,753.00
2023-03-29T07:58:51.546Z,712.00
2023-03-29T07:59:51.559Z,698.00
2023-03-29T08:00:51.560Z,694.00
2023-03-29T08:01:51.526Z,695.00
2023-03-29T08:02:51.539Z,699.00
2023-03-29T08:03:51.574Z,699.00
2023-03-29T08:04:51.502Z,698.00
2023-03-29T08:05:51.489Z,696.00
2023-03-29T08:06:51.509Z,692.00
2023-03-29T08:07:51.461Z,684.00
2023-03-29T08:08:51.516Z,676.00
2023-03-29T08:09:51.457Z,672.00
2023-03-29T08:10:51.462Z,670.00
2023-03-29T08:11:51.455Z,673.00
2023-03-29T08:12:51.428Z,671.00
2023-03-29T08:13:51.427Z,670.00
2023-03-29T08:14:51.574Z,673.00
2023-03-29T08:15:51.417Z,678.00
2023-03-29T08:16:51.433Z,685.00
2023-03-29T08:17:51.445Z,684.00
2023-03-29T08:18:51.395Z,681.00
2023-03-29T08:19:51.818Z,677.00
2023-03-29T08:20:51.375Z,672.00
2023-03-29T08:21:51.345Z,667.00
2023-03-29T08:22:51.354Z,661.00
2023-03-29T08:23:51.364Z,665.00
2023-03-29T08:24:51.599Z,667.00
2023-03-29T08:25:51.337Z,670.00
2023-03-29T08:26:51.396Z,675.00
2023-03-29T08:27:51.607Z,679.00
2023-03-29T08:28:51.344Z,678.00
2023-03-29T08:29:51.311Z,678.00
2023-03-29T08:30:51.294Z,680.00
2023-03-29T08:31:51.295Z,680.00
2023-03-29T08:32:54.450Z,681.00
2023-03-29T08:33:51.283Z,683.00
2023-03-29T08:34:51.257Z,680.00
2023-03-29T08:35:51.334Z,686.00
2023-03-29T08:36:52.100Z,694.00
2023-03-29T08:37:51.644Z,701.00
2023-03-29T08:38:51.231Z,709.00
2023-03-29T08:39:51.226Z,723.00
2023-03-29T08:40:51.212Z,810.00
2023-03-29T08:41:51.236Z,872.00
2023-03-29T08:42:52.107Z,866.00
2023-03-29T08:43:51.216Z,870.00
2023-03-29T08:44:51.192Z,882.00
2023-03-29T08:45:51.349Z,900.00
2023-03-29T08:46:51.244Z,915.00
2023-03-29T08:47:51.238Z,923.00
2023-03-29T08:48:51.137Z,932.00
2023-03-29T08:49:51.145Z,936.00
2023-03-29T08:50:51.135Z,943.00
2023-03-29T08:51:51.154Z,949.00
2023-03-29T08:52:51.171Z,955.00
2023-03-29T08:53:51.112Z,964.00
2023-03-29T08:54:51.098Z,974.00
2023-03-29T08:55:51.102Z,980.00
2023-03-29T08:56:51.223Z,987.00
2023-03-29T08:57:51.100Z,985.00
2023-03-29T08:58:51.613Z,986.00
2023-03-29T08:59:51.069Z,991.00
2023-03-29T09:00:51.076Z,996.00
2023-03-29T09:01:51.061Z,1001.00
2023-03-29T09:02:51.143Z,1005.00
2023-03-29T09:03:51.175Z,1016.00
2023-03-29T09:04:51.067Z,1029.00
2023-03-29T09:05:51.023Z,1035.00
2023-03-29T09:06:51.022Z,1040.00
2023-03-29T09:07:51.029Z,1044.00
2023-03-29T09:08:51.108Z,1044.00
2023-03-29T09:09:51.001Z,1047.00
2023-03-29T09:10:51.000Z,1049.00
2023-03-29T09:11:50.984Z,1057.00
2023-03-29T09:12:51.041Z,1055.00
2023-03-29T09:13:51.002Z,1058.00
2023-03-29T09:14:50.951Z,1063.00
2023-03-29T09:15:51.004Z,1069.00
2023-03-29T09:16:50.976Z,1075.00
2023-03-29T09:17:51.165Z,1078.00
2023-03-29T09:18:50.965Z,1088.00
2023-03-29T09:19:50.927Z,1094.00
2023-03-29T09:20:50.949Z,1102.00
2023-03-29T09:21:50.920Z,1108.00
2023-03-29T09:22:51.620Z,1110.00
2023-03-29T09:23:51.022Z,1113.00
2023-03-29T09:24:50.968Z,1124.00
2023-03-29T09:25:53.446Z,1128.00
2023-03-29T09:26:50.872Z,1074.00
2023-03-29T09:27:51.182Z,1045.00
2023-03-29T09:28:50.920Z,958.00
2023-03-29T09:29:50.914Z,953.00
2023-03-29T09:30:50.879Z,952.00
2023-03-29T09:31:50.931Z,850.00
2023-03-29T09:32:51.132Z,843.00
2023-03-29T09:33:51.135Z,859.00
2023-03-29T09:34:50.867Z,872.00
2023-03-29T09:35:50.869Z,882.00
2023-03-29T09:36:50.871Z,894.00
2023-03-29T09:37:50.803Z,906.00
2023-03-29T09:38:50.791Z,902.00
2023-03-29T09:39:50.800Z,906.00
2023-03-29T09:40:50.767Z,967.00
2023-03-29T09:41:50.768Z,981.00
2023-03-29T09:42:50.785Z,993.00
2023-03-29T09:43:50.764Z,1007.00
2023-03-29T09:44:50.742Z,1014.00
2023-03-29T09:45:50.800Z,1022.00
2023-03-29T09:46:50.747Z,1020.00
2023-03-29T09:47:50.788Z,1027.00
2023-03-29T09:48:51.152Z,1034.00
2023-03-29T09:49:50.717Z,1038.00
2023-03-29T09:50:50.762Z,1043.00
2023-03-29T09:51:50.715Z,1046.00
2023-03-29T09:52:50.727Z,1047.00
2023-03-29T09:53:51.115Z,1046.00
2023-03-29T09:54:50.713Z,1052.00
2023-03-29T09:55:50.748Z,1053.00
2023-03-29T09:56:50.792Z,1052.00
2023-03-29T09:57:50.701Z,1052.00
2023-03-29T09:58:50.680Z,1050.00
2023-03-29T09:59:50.668Z,1051.00
2023-03-29T10:00:50.752Z,1050.00
2023-03-29T10:01:50.679Z,1049.00
2023-03-29T10:02:50.737Z,1047.00
2023-03-29T10:03:51.174Z,1041.00
2023-03-29T10:04:51.113Z,1037.00
2023-03-29T10:05:50.633Z,1035.00
2023-03-29T10:06:50.674Z,1033.00
2023-03-29T10:07:50.623Z,1031.00
2023-03-29T10:08:50.606Z,1025.00
2023-03-29T10:09:50.630Z,1021.00
2023-03-29T10:10:50.613Z,1018.00
2023-03-29T10:11:50.628Z,998.00
2023-03-29T10:12:50.563Z,885.00
2023-03-29T10:13:50.626Z,756.00
2023-03-29T10:14:53.500Z,736.00
2023-03-29T10:15:50.540Z,737.00
2023-03-29T10:16:50.616Z,735.00
2023-03-29T10:17:50.558Z,730.00
2023-03-29T10:18:50.512Z,736.00
2023-03-29T10:19:50.651Z,825.00
2023-03-29T10:20:50.549Z,841.00
2023-03-29T10:21:50.477Z,823.00
2023-03-29T10:22:50.576Z,817.00
2023-03-29T10:23:50.544Z,814.00
2023-03-29T10:24:50.640Z,814.00
2023-03-29T10:25:50.456Z,812.00
2023-03-29T10:26:50.472Z,811.00
2023-03-29T10:27:50.458Z,810.00
2023-03-29T10:28:50.436Z,802.00
2023-03-29T10:29:50.452Z,799.00
2023-03-29T10:30:50.425Z,794.00
2023-03-29T10:31:50.510Z,787.00
2023-03-29T10:32:50.490Z,783.00
2023-03-29T10:33:50.404Z,783.00
2023-03-29T10:34:50.394Z,784.00
2023-03-29T10:35:50.448Z,780.00
2023-03-29T10:36:50.415Z,774.00
2023-03-29T10:37:50.388Z,770.00
2023-03-29T10:38:50.357Z,766.00
2023-03-29T10:39:50.377Z,764.00
2023-03-29T10:40:50.352Z,761.00
2023-03-29T10:41:50.385Z,755.00
2023-03-29T10:42:50.345Z,751.00
2023-03-29T10:43:50.345Z,749.00
2023-03-29T10:44:50.372Z,745.00
2023-03-29T10:45:50.376Z,734.00
2023-03-29T10:46:50.326Z,728.00
2023-03-29T10:47:50.369Z,726.00
2023-03-29T10:48:50.322Z,720.00
2023-03-29T10:49:51.067Z,715.00
2023-03-29T10:50:50.293Z,709.00
2023-03-29T10:51:50.312Z,703.00
2023-03-29T10:52:50.327Z,690.00
2023-03-29T10:53:50.273Z,677.00
2023-03-29T10:54:50.293Z,668.00
2023-03-29T10:55:50.259Z,662.00
2023-03-29T10:56:52.343Z,652.00
2023-03-29T10:57:50.296Z,653.00
2023-03-29T10:58:50.238Z,657.00
2023-03-29T10:59:50.691Z,662.00
2023-03-29T11:00:50.226Z,668.00
2023-03-29T11:01:50.275Z,672.00
2023-03-29T11:02:50.347Z,671.00
2023-03-29T11:03:50.273Z,672.00
2023-03-29T11:04:50.680Z,673.00
2023-03-29T11:05:50.211Z,673.00
2023-03-29T11:06:50.167Z,674.00
2023-03-29T11:07:50.234Z,674.00
2023-03-29T11:08:50.150Z,675.00
2023-03-29T11:09:50.159Z,675.00
2023-03-29T11:10:50.176Z,671.00
2023-03-29T11:11:51.583Z,669.00
2023-03-29T11:12:51.198Z,670.00
2023-03-29T11:13:50.185Z,670.00
2023-03-29T11:14:50.712Z,667.00
2023-03-29T11:15:50.740Z,666.00
2023-03-29T11:16:50.178Z,665.00
2023-03-29T11:17:50.194Z,663.00
2023-03-29T11:18:50.181Z,660.00
2023-03-29T11:19:50.144Z,657.00
2023-03-29T11:20:50.152Z,656.00
2023-03-29T11:21:50.193Z,654.00
2023-03-29T11:22:50.221Z,652.00
2023-03-29T11:23:50.278Z,650.00
2023-03-29T11:24:50.375Z,649.00
2023-03-29T11:25:50.498Z,648.00
2023-03-29T11:26:50.447Z,645.00
2023-03-29T11:27:50.502Z,643.00
2023-03-29T11:28:50.566Z,641.00
2023-03-29T11:29:50.641Z,639.00
2023-03-29T11:30:50.754Z,637.00
2023-03-29T11:31:50.811Z,637.00
2023-03-29T11:32:50.864Z,637.00
2023-03-29T11:33:50.836Z,637.00
2023-03-29T11:34:50.892Z,637.00
2023-03-29T11:35:51.027Z,638.00
2023-03-29T11:36:51.048Z,636.00
2023-03-29T11:37:51.215Z,634.00
2023-03-29T11:38:51.124Z,631.00
2023-03-29T11:39:51.191Z,628.00
2023-03-29T11:40:51.247Z,625.00
2023-03-29T11:41:51.315Z,623.00
2023-03-29T11:42:51.377Z,620.00
2023-03-29T11:43:51.454Z,621.00
2023-03-29T11:44:53.414Z,622.00
2023-03-29T11:45:51.500Z,621.00
2023-03-29T11:46:51.521Z,617.00
2023-03-29T11:47:51.491Z,618.00
2023-03-29T11:48:51.466Z,618.00
2023-03-29T11:49:51.471Z,618.00
2023-03-29T11:50:51.455Z,616.00
2023-03-29T11:51:51.442Z,616.00
2023-03-29T11:52:51.436Z,618.00
2023-03-29T11:53:51.416Z,616.00
2023-03-29T11:54:51.421Z,615.00
2023-03-29T11:55:51.684Z,613.00
2023-03-29T11:56:51.488Z,610.00
2023-03-29T11:57:51.676Z,609.00
2023-03-29T11:58:51.397Z,605.00
2023-03-29T11:59:51.393Z,604.00
2023-03-29T12:00:51.361Z,601.00
2023-03-29T12:01:51.386Z,603.00
2023-03-29T12:02:51.695Z,602.00
2023-03-29T12:03:51.444Z,600.00
2023-03-29T12:04:51.366Z,602.00
2023-03-29T12:05:51.354Z,598.00
2023-03-29T12:06:51.355Z,597.00
2023-03-29T12:07:51.325Z,596.00
2023-03-29T12:08:51.316Z,595.00
2023-03-29T12:09:51.316Z,592.00
2023-03-29T12:10:51.322Z,592.00
2023-03-29T12:11:51.309Z,592.00
2023-03-29T12:12:51.662Z,591.00
2023-03-29T12:13:51.273Z,590.00
2023-03-29T12:14:51.257Z,586.00
2023-03-29T12:15:51.271Z,583.00
2023-03-29T12:16:51.296Z,583.00
2023-03-29T12:17:51.302Z,582.00
2023-03-29T12:18:51.224Z,581.00
2023-03-29T12:19:51.239Z,579.00
2023-03-29T12:20:51.244Z,579.00
2023-03-29T12:21:51.273Z,578.00
2023-03-29T12:22:51.332Z,579.00
2023-03-29T12:23:51.361Z,579.00
2023-03-29T12:24:51.414Z,579.00